sensor_id;sensor_type;location;lat;lon;timestamp;temperature;humidity
62862;DHT22;48953;53.110;5.592;2022-07-12T00:01:54;12.70;99.90
62862;DHT22;48953;53.110;5.592;2022-07-12T00:04:19;12.80;99.90
62862;DHT22;48953;53.110;5.592;2022-07-12T00:06:45;12.70;99.90
62862;DHT22;48953;53.110;5.592;2022-07-12T00:09:11;12.70;99.90
62862;DHT22;48953;53.110;5.592;2022-07-12T00:11:37;12.70;99.90
62862;DHT22;48953;53.110;5.592;2022-07-12T00:14:03;12.80;99.90
62862;DHT22;48953;53.110;5.592;2022-07-12T00:16:29;12.70;99.90
62862;DHT22;48953;53.110;5.592;2022-07-12T00:18:54;12.80;99.90
62862;DHT22;48953;53.110;5.592;2022-07-12T00:21:20;12.80;99.90
62862;DHT22;48953;53.110;5.592;2022-07-12T00:23:46;12.70;99.90
62862;DHT22;48953;53.110;5.592;2022-07-12T00:26:11;12.70;99.90
62862;DHT22;48953;53.110;5.592;2022-07-12T00:28:37;12.70;99.90
62862;DHT22;48953;53.110;5.592;2022-07-12T00:31:03;12.50;99.90
62862;DHT22;48953;53.110;5.592;2022-07-12T00:33:29;12.60;99.90
62862;DHT22;48953;53.110;5.592;2022-07-12T00:35:55;12.70;99.90
62862;DHT22;48953;53.110;5.592;2022-07-12T00:38:21;12.70;99.90
62862;DHT22;48953;53.110;5.592;2022-07-12T00:40:46;12.70;99.90
62862;DHT22;48953;53.110;5.592;2022-07-12T00:43:12;12.70;99.90
62862;DHT22;48953;53.110;5.592;2022-07-12T00:45:38;12.80;99.90
62862;DHT22;48953;53.110;5.592;2022-07-12T00:48:04;12.80;99.90
62862;DHT22;48953;53.110;5.592;2022-07-12T00:50:29;12.70;99.90
62862;DHT22;48953;53.110;5.592;2022-07-12T00:52:56;12.70;99.90
62862;DHT22;48953;53.110;5.592;2022-07-12T00:55:22;12.60;99.90
62862;DHT22;48953;53.110;5.592;2022-07-12T00:57:49;12.50;99.90
62862;DHT22;48953;53.110;5.592;2022-07-12T01:00:24;12.60;99.90
62862;DHT22;48953;53.110;5.592;2022-07-12T01:02:51;12.60;99.90
62862;DHT22;48953;53.110;5.592;2022-07-12T01:05:17;12.70;1.00
62862;DHT22;48953;53.110;5.592;2022-07-12T01:07:44;12.50;1.00
62862;DHT22;48953;53.110;5.592;2022-07-12T01:10:10;12.40;1.00
62862;DHT22;48953;53.110;5.592;2022-07-12T01:12:36;12.10;1.00
62862;DHT22;48953;53.110;5.592;2022-07-12T01:15:04;12.20;1.00
62862;DHT22;48953;53.110;5.592;2022-07-12T01:17:31;12.20;1.00
62862;DHT22;48953;53.110;5.592;2022-07-12T01:19:58;12.20;1.00
62862;DHT22;48953;53.110;5.592;2022-07-12T01:22:30;12.30;1.00
62862;DHT22;48953;53.110;5.592;2022-07-12T01:24:57;12.10;1.00
62862;DHT22;48953;53.110;5.592;2022-07-12T01:27:23;12.20;1.00
62862;DHT22;48953;53.110;5.592;2022-07-12T01:29:48;12.10;1.00
62862;DHT22;48953;53.110;5.592;2022-07-12T01:32:14;12.10;1.00
62862;DHT22;48953;53.110;5.592;2022-07-12T01:35:02;12.00;1.00
62862;DHT22;48953;53.110;5.592;2022-07-12T01:37:30;11.90;1.00
62862;DHT22;48953;53.110;5.592;2022-07-12T01:39:57;11.90;1.00
62862;DHT22;48953;53.110;5.592;2022-07-12T01:42:25;11.90;99.90
62862;DHT22;48953;53.110;5.592;2022-07-12T01:44:52;12.00;99.90
62862;DHT22;48953;53.110;5.592;2022-07-12T01:47:23;12.10;1.00
62862;DHT22;48953;53.110;5.592;2022-07-12T01:49:48;12.00;1.00
62862;DHT22;48953;53.110;5.592;2022-07-12T01:52:14;12.10;1.00
62862;DHT22;48953;53.110;5.592;2022-07-12T01:54:41;12.10;1.00
62862;DHT22;48953;53.110;5.592;2022-07-12T01:57:07;12.10;1.00
62862;DHT22;48953;53.110;5.592;2022-07-12T01:59:33;12.10;1.00
62862;DHT22;48953;53.110;5.592;2022-07-12T02:01:59;12.10;1.00
62862;DHT22;48953;53.110;5.592;2022-07-12T02:04:26;12.10;1.00
62862;DHT22;48953;53.110;5.592;2022-07-12T02:06:51;12.10;99.90
62862;DHT22;48953;53.110;5.592;2022-07-12T02:09:17;12.00;99.90
62862;DHT22;48953;53.110;5.592;2022-07-12T02:11:44;12.00;99.90
62862;DHT22;48953;53.110;5.592;2022-07-12T02:14:10;12.00;99.90
62862;DHT22;48953;53.110;5.592;2022-07-12T02:16:38;12.00;99.90
62862;DHT22;48953;53.110;5.592;2022-07-12T02:19:03;11.90;99.90
62862;DHT22;48953;53.110;5.592;2022-07-12T02:21:29;11.80;99.90
62862;DHT22;48953;53.110;5.592;2022-07-12T02:23:54;12.00;99.90
62862;DHT22;48953;53.110;5.592;2022-07-12T02:26:20;11.90;99.90
62862;DHT22;48953;53.110;5.592;2022-07-12T02:28:46;11.90;99.90
62862;DHT22;48953;53.110;5.592;2022-07-12T02:31:11;11.80;99.90
62862;DHT22;48953;53.110;5.592;2022-07-12T02:33:37;12.00;99.90
62862;DHT22;48953;53.110;5.592;2022-07-12T02:36:03;12.20;99.90
62862;DHT22;48953;53.110;5.592;2022-07-12T02:38:28;12.20;99.90
62862;DHT22;48953;53.110;5.592;2022-07-12T02:40:54;12.00;99.90
62862;DHT22;48953;53.110;5.592;2022-07-12T02:43:27;11.90;99.90
62862;DHT22;48953;53.110;5.592;2022-07-12T02:45:55;11.80;99.90
62862;DHT22;48953;53.110;5.592;2022-07-12T02:48:23;11.90;99.90
62862;DHT22;48953;53.110;5.592;2022-07-12T02:50:49;11.80;99.90
62862;DHT22;48953;53.110;5.592;2022-07-12T02:53:15;11.80;99.90
62862;DHT22;48953;53.110;5.592;2022-07-12T02:55:41;11.70;99.90
62862;DHT22;48953;53.110;5.592;2022-07-12T02:58:07;11.80;99.90
62862;DHT22;48953;53.110;5.592;2022-07-12T03:00:37;11.90;99.90
62862;DHT22;48953;53.110;5.592;2022-07-12T03:03:03;12.10;99.90
62862;DHT22;48953;53.110;5.592;2022-07-12T03:05:29;12.20;99.90
62862;DHT22;48953;53.110;5.592;2022-07-12T03:07:54;12.20;99.90
62862;DHT22;48953;53.110;5.592;2022-07-12T03:10:21;12.10;99.90
62862;DHT22;48953;53.110;5.592;2022-07-12T03:12:47;12.30;99.90
62862;DHT22;48953;53.110;5.592;2022-07-12T03:15:13;12.20;1.00
62862;DHT22;48953;53.110;5.592;2022-07-12T03:17:38;12.20;1.00
62862;DHT22;48953;53.110;5.592;2022-07-12T03:20:05;12.40;1.00
62862;DHT22;48953;53.110;5.592;2022-07-12T03:22:37;12.30;1.00
62862;DHT22;48953;53.110;5.592;2022-07-12T03:25:03;12.30;1.00
62862;DHT22;48953;53.110;5.592;2022-07-12T03:27:29;12.20;1.00
62862;DHT22;48953;53.110;5.592;2022-07-12T03:29:56;12.10;1.00
62862;DHT22;48953;53.110;5.592;2022-07-12T03:32:23;12.00;1.00
62862;DHT22;48953;53.110;5.592;2022-07-12T03:34:48;12.10;1.00
62862;DHT22;48953;53.110;5.592;2022-07-12T03:37:14;12.00;1.00
62862;DHT22;48953;53.110;5.592;2022-07-12T03:39:39;12.00;1.00
62862;DHT22;48953;53.110;5.592;2022-07-12T03:42:05;11.90;1.00
62862;DHT22;48953;53.110;5.592;2022-07-12T03:44:30;12.00;1.00
62862;DHT22;48953;53.110;5.592;2022-07-12T03:46:56;11.90;1.00
62862;DHT22;48953;53.110;5.592;2022-07-12T03:49:22;11.80;1.00
62862;DHT22;48953;53.110;5.592;2022-07-12T03:51:47;12.00;1.00
62862;DHT22;48953;53.110;5.592;2022-07-12T03:54:13;12.00;1.00
62862;DHT22;48953;53.110;5.592;2022-07-12T03:56:38;12.00;1.00
62862;DHT22;48953;53.110;5.592;2022-07-12T03:59:23;12.20;99.90
62862;DHT22;48953;53.110;5.592;2022-07-12T04:01:48;12.30;99.90
62862;DHT22;48953;53.110;5.592;2022-07-12T04:04:14;12.30;99.90
62862;DHT22;48953;53.110;5.592;2022-07-12T04:06:39;12.40;99.90
62862;DHT22;48953;53.110;5.592;2022-07-12T04:09:06;12.60;99.90
62862;DHT22;48953;53.110;5.592;2022-07-12T04:11:32;12.70;99.90
62862;DHT22;48953;53.110;5.592;2022-07-12T04:13:57;13.50;99.90
62862;DHT22;48953;53.110;5.592;2022-07-12T04:16:23;14.70;99.90
62862;DHT22;48953;53.110;5.592;2022-07-12T04:18:49;15.10;99.90
62862;DHT22;48953;53.110;5.592;2022-07-12T04:21:14;16.00;99.90
62862;DHT22;48953;53.110;5.592;2022-07-12T04:23:40;17.40;99.90
62862;DHT22;48953;53.110;5.592;2022-07-12T04:26:06;18.60;99.90
62862;DHT22;48953;53.110;5.592;2022-07-12T04:28:31;19.60;53.60
62862;DHT22;48953;53.110;5.592;2022-07-12T04:30:57;20.50;1.00
62862;DHT22;48953;53.110;5.592;2022-07-12T04:33:23;21.20;1.00
62862;DHT22;48953;53.110;5.592;2022-07-12T04:35:48;21.50;1.00
62862;DHT22;48953;53.110;5.592;2022-07-12T04:38:14;20.50;1.00
62862;DHT22;48953;53.110;5.592;2022-07-12T04:40:39;18.90;1.00
62862;DHT22;48953;53.110;5.592;2022-07-12T04:43:05;17.90;1.00
62862;DHT22;48953;53.110;5.592;2022-07-12T04:45:31;17.30;1.00
62862;DHT22;48953;53.110;5.592;2022-07-12T04:47:57;16.90;1.00
62862;DHT22;48953;53.110;5.592;2022-07-12T04:50:22;16.90;1.00
62862;DHT22;48953;53.110;5.592;2022-07-12T04:52:48;16.70;1.00
62862;DHT22;48953;53.110;5.592;2022-07-12T04:55:13;16.50;1.00
62862;DHT22;48953;53.110;5.592;2022-07-12T04:57:39;16.50;1.00
62862;DHT22;48953;53.110;5.592;2022-07-12T05:00:06;16.60;1.00
62862;DHT22;48953;53.110;5.592;2022-07-12T05:02:32;16.60;1.00
62862;DHT22;48953;53.110;5.592;2022-07-12T05:04:58;16.80;1.00
62862;DHT22;48953;53.110;5.592;2022-07-12T05:07:23;17.10;1.00
62862;DHT22;48953;53.110;5.592;2022-07-12T05:09:49;17.90;1.00
62862;DHT22;48953;53.110;5.592;2022-07-12T05:12:16;18.70;1.00
62862;DHT22;48953;53.110;5.592;2022-07-12T05:14:42;19.50;1.00
62862;DHT22;48953;53.110;5.592;2022-07-12T05:17:07;20.50;99.90
62862;DHT22;48953;53.110;5.592;2022-07-12T05:19:33;20.90;99.90
62862;DHT22;48953;53.110;5.592;2022-07-12T05:21:58;21.90;99.90
62862;DHT22;48953;53.110;5.592;2022-07-12T05:24:24;22.80;99.90
62862;DHT22;48953;53.110;5.592;2022-07-12T05:26:50;23.30;99.90
62862;DHT22;48953;53.110;5.592;2022-07-12T05:29:15;23.90;99.90
62862;DHT22;48953;53.110;5.592;2022-07-12T05:31:41;25.70;99.90
62862;DHT22;48953;53.110;5.592;2022-07-12T05:34:06;25.90;99.90
62862;DHT22;48953;53.110;5.592;2022-07-12T05:36:32;24.50;99.90
62862;DHT22;48953;53.110;5.592;2022-07-12T05:38:57;23.60;99.90
62862;DHT22;48953;53.110;5.592;2022-07-12T05:41:23;23.30;99.90
62862;DHT22;48953;53.110;5.592;2022-07-12T05:43:48;23.40;99.90
62862;DHT22;48953;53.110;5.592;2022-07-12T05:46:14;23.80;99.90
62862;DHT22;48953;53.110;5.592;2022-07-12T05:48:40;24.60;99.90
62862;DHT22;48953;53.110;5.592;2022-07-12T05:51:05;24.90;99.90
62862;DHT22;48953;53.110;5.592;2022-07-12T05:53:49;24.90;99.90
62862;DHT22;48953;53.110;5.592;2022-07-12T05:56:15;24.70;99.90
62862;DHT22;48953;53.110;5.592;2022-07-12T05:58:40;24.90;99.90
62862;DHT22;48953;53.110;5.592;2022-07-12T06:01:06;25.80;99.90
62862;DHT22;48953;53.110;5.592;2022-07-12T06:03:32;26.10;99.90
62862;DHT22;48953;53.110;5.592;2022-07-12T06:05:58;27.90;99.90
62862;DHT22;48953;53.110;5.592;2022-07-12T06:08:24;29.40;99.90
62862;DHT22;48953;53.110;5.592;2022-07-12T06:10:49;30.40;99.90
62862;DHT22;48953;53.110;5.592;2022-07-12T06:13:15;29.70;99.90
62862;DHT22;48953;53.110;5.592;2022-07-12T06:15:40;30.40;99.90
62862;DHT22;48953;53.110;5.592;2022-07-12T06:18:06;31.00;99.90
62862;DHT22;48953;53.110;5.592;2022-07-12T06:20:32;32.40;99.90
62862;DHT22;48953;53.110;5.592;2022-07-12T06:22:58;34.20;99.90
62862;DHT22;48953;53.110;5.592;2022-07-12T06:25:23;34.60;99.90
62862;DHT22;48953;53.110;5.592;2022-07-12T06:27:50;35.20;99.90
62862;DHT22;48953;53.110;5.592;2022-07-12T06:30:20;35.60;99.90
62862;DHT22;48953;53.110;5.592;2022-07-12T06:32:46;36.30;99.90
62862;DHT22;48953;53.110;5.592;2022-07-12T06:35:13;35.30;99.90
62862;DHT22;48953;53.110;5.592;2022-07-12T06:37:39;37.20;99.90
62862;DHT22;48953;53.110;5.592;2022-07-12T06:40:05;37.70;99.90
62862;DHT22;48953;53.110;5.592;2022-07-12T06:42:31;37.10;99.90
62862;DHT22;48953;53.110;5.592;2022-07-12T06:44:57;33.90;99.90
62862;DHT22;48953;53.110;5.592;2022-07-12T06:47:22;32.40;99.90
62862;DHT22;48953;53.110;5.592;2022-07-12T06:49:48;31.80;99.90
62862;DHT22;48953;53.110;5.592;2022-07-12T06:52:13;31.30;99.90
62862;DHT22;48953;53.110;5.592;2022-07-12T06:54:39;30.20;99.90
62862;DHT22;48953;53.110;5.592;2022-07-12T06:57:05;30.30;99.90
62862;DHT22;48953;53.110;5.592;2022-07-12T06:59:31;29.70;99.90
62862;DHT22;48953;53.110;5.592;2022-07-12T07:01:57;28.90;99.90
62862;DHT22;48953;53.110;5.592;2022-07-12T07:04:23;28.40;99.90
62862;DHT22;48953;53.110;5.592;2022-07-12T07:06:49;28.30;99.90
62862;DHT22;48953;53.110;5.592;2022-07-12T07:09:15;28.00;99.90
62862;DHT22;48953;53.110;5.592;2022-07-12T07:11:41;27.50;99.90
62862;DHT22;48953;53.110;5.592;2022-07-12T07:14:06;27.50;99.90
62862;DHT22;48953;53.110;5.592;2022-07-12T07:16:33;28.10;99.90
62862;DHT22;48953;53.110;5.592;2022-07-12T07:18:59;28.00;99.90
62862;DHT22;48953;53.110;5.592;2022-07-12T07:21:24;28.50;99.90
62862;DHT22;48953;53.110;5.592;2022-07-12T07:23:51;28.30;99.90
62862;DHT22;48953;53.110;5.592;2022-07-12T07:26:17;27.70;99.90
62862;DHT22;48953;53.110;5.592;2022-07-12T07:28:42;27.50;99.90
62862;DHT22;48953;53.110;5.592;2022-07-12T07:31:26;27.90;99.90
62862;DHT22;48953;53.110;5.592;2022-07-12T07:33:52;28.00;99.90
62862;DHT22;48953;53.110;5.592;2022-07-12T07:36:17;27.70;99.90
62862;DHT22;48953;53.110;5.592;2022-07-12T07:38:43;27.60;99.90
62862;DHT22;48953;53.110;5.592;2022-07-12T07:41:09;28.70;99.90
62862;DHT22;48953;53.110;5.592;2022-07-12T07:43:34;29.80;99.90
62862;DHT22;48953;53.110;5.592;2022-07-12T07:46:00;32.10;99.90
62862;DHT22;48953;53.110;5.592;2022-07-12T07:48:27;35.20;99.90
62862;DHT22;48953;53.110;5.592;2022-07-12T07:50:53;36.00;99.90
62862;DHT22;48953;53.110;5.592;2022-07-12T07:53:19;35.70;99.90
62862;DHT22;48953;53.110;5.592;2022-07-12T07:55:45;36.10;99.90
62862;DHT22;48953;53.110;5.592;2022-07-12T07:58:10;35.90;99.90
62862;DHT22;48953;53.110;5.592;2022-07-12T08:00:36;36.30;99.90
62862;DHT22;48953;53.110;5.592;2022-07-12T08:03:01;39.90;99.90
62862;DHT22;48953;53.110;5.592;2022-07-12T08:05:27;41.30;99.90
62862;DHT22;48953;53.110;5.592;2022-07-12T08:07:53;42.50;99.90
62862;DHT22;48953;53.110;5.592;2022-07-12T08:10:18;42.40;99.90
62862;DHT22;48953;53.110;5.592;2022-07-12T08:12:44;42.30;99.90
62862;DHT22;48953;53.110;5.592;2022-07-12T08:15:10;42.50;99.90
62862;DHT22;48953;53.110;5.592;2022-07-12T08:17:36;42.20;99.90
62862;DHT22;48953;53.110;5.592;2022-07-12T08:20:03;42.90;99.90
62862;DHT22;48953;53.110;5.592;2022-07-12T08:22:29;43.60;99.90
62862;DHT22;48953;53.110;5.592;2022-07-12T08:24:55;44.70;99.90
62862;DHT22;48953;53.110;5.592;2022-07-12T08:27:20;44.10;99.90
62862;DHT22;48953;53.110;5.592;2022-07-12T08:29:46;43.20;99.90
62862;DHT22;48953;53.110;5.592;2022-07-12T08:32:12;42.90;99.90
62862;DHT22;48953;53.110;5.592;2022-07-12T08:34:37;43.60;99.90
62862;DHT22;48953;53.110;5.592;2022-07-12T08:37:03;43.10;99.90
62862;DHT22;48953;53.110;5.592;2022-07-12T08:39:29;44.50;99.90
62862;DHT22;48953;53.110;5.592;2022-07-12T08:41:55;45.00;99.90
62862;DHT22;48953;53.110;5.592;2022-07-12T08:44:20;45.80;99.90
62862;DHT22;48953;53.110;5.592;2022-07-12T08:46:46;46.00;99.90
62862;DHT22;48953;53.110;5.592;2022-07-12T08:49:12;45.40;99.90
62862;DHT22;48953;53.110;5.592;2022-07-12T08:51:38;45.40;99.90
62862;DHT22;48953;53.110;5.592;2022-07-12T08:54:11;44.00;99.90
62862;DHT22;48953;53.110;5.592;2022-07-12T08:56:43;44.40;99.90
62862;DHT22;48953;53.110;5.592;2022-07-12T08:59:10;45.20;99.90
62862;DHT22;48953;53.110;5.592;2022-07-12T09:01:54;45.30;99.90
62862;DHT22;48953;53.110;5.592;2022-07-12T09:04:24;42.70;99.90
62862;DHT22;48953;53.110;5.592;2022-07-12T09:06:50;43.10;99.90
62862;DHT22;48953;53.110;5.592;2022-07-12T09:09:30;42.80;99.90
62862;DHT22;48953;53.110;5.592;2022-07-12T09:11:56;42.70;99.90
62862;DHT22;48953;53.110;5.592;2022-07-12T09:14:22;44.70;99.90
62862;DHT22;48953;53.110;5.592;2022-07-12T09:17:04;44.20;99.90
62862;DHT22;48953;53.110;5.592;2022-07-12T09:19:37;46.20;99.90
62862;DHT22;48953;53.110;5.592;2022-07-12T09:22:03;45.70;99.90
62862;DHT22;48953;53.110;5.592;2022-07-12T09:24:29;44.50;99.90
62862;DHT22;48953;53.110;5.592;2022-07-12T09:27:04;46.30;99.90
62862;DHT22;48953;53.110;5.592;2022-07-12T09:29:31;46.70;99.90
62862;DHT22;48953;53.110;5.592;2022-07-12T09:31:58;46.00;99.90
62862;DHT22;48953;53.110;5.592;2022-07-12T09:34:56;44.00;99.90
62862;DHT22;48953;53.110;5.592;2022-07-12T09:37:42;45.10;99.90
62862;DHT22;48953;53.110;5.592;2022-07-12T09:40:08;46.20;99.90
62862;DHT22;48953;53.110;5.592;2022-07-12T09:42:34;47.30;99.90
62862;DHT22;48953;53.110;5.592;2022-07-12T09:45:01;45.30;99.90
62862;DHT22;48953;53.110;5.592;2022-07-12T09:47:27;46.50;99.90
62862;DHT22;48953;53.110;5.592;2022-07-12T09:49:54;45.50;99.90
62862;DHT22;48953;53.110;5.592;2022-07-12T09:52:22;44.30;99.90
62862;DHT22;48953;53.110;5.592;2022-07-12T09:54:50;43.00;99.90
62862;DHT22;48953;53.110;5.592;2022-07-12T09:59:49;42.00;99.90
62862;DHT22;48953;53.110;5.592;2022-07-12T10:02:16;43.70;99.90
62862;DHT22;48953;53.110;5.592;2022-07-12T10:04:43;43.30;99.90
62862;DHT22;48953;53.110;5.592;2022-07-12T10:07:11;43.10;99.90
62862;DHT22;48953;53.110;5.592;2022-07-12T10:09:44;43.10;99.90
62862;DHT22;48953;53.110;5.592;2022-07-12T10:12:11;42.80;99.90
62862;DHT22;48953;53.110;5.592;2022-07-12T10:14:38;42.90;99.90
62862;DHT22;48953;53.110;5.592;2022-07-12T10:17:06;42.80;99.90
62862;DHT22;48953;53.110;5.592;2022-07-12T10:19:35;42.60;99.90
62862;DHT22;48953;53.110;5.592;2022-07-12T10:22:03;42.50;99.90
62862;DHT22;48953;53.110;5.592;2022-07-12T10:29:45;43.30;99.90
62862;DHT22;48953;53.110;5.592;2022-07-12T10:32:34;43.20;99.90
62862;DHT22;48953;53.110;5.592;2022-07-12T10:35:04;44.50;99.90
62862;DHT22;48953;53.110;5.592;2022-07-12T10:37:31;45.50;99.90
62862;DHT22;48953;53.110;5.592;2022-07-12T10:45:56;43.90;99.90
62862;DHT22;48953;53.110;5.592;2022-07-12T10:48:29;42.20;99.90
62862;DHT22;48953;53.110;5.592;2022-07-12T10:50:55;42.20;99.90
62862;DHT22;48953;53.110;5.592;2022-07-12T10:56:20;42.50;99.90
62862;DHT22;48953;53.110;5.592;2022-07-12T10:58:55;44.50;99.90
62862;DHT22;48953;53.110;5.592;2022-07-12T11:01:23;44.00;99.90
62862;DHT22;48953;53.110;5.592;2022-07-12T11:04:07;44.80;99.90
62862;DHT22;48953;53.110;5.592;2022-07-12T11:06:42;43.70;99.90
62862;DHT22;48953;53.110;5.592;2022-07-12T11:09:09;44.40;99.90
62862;DHT22;48953;53.110;5.592;2022-07-12T11:11:43;43.70;99.90
62862;DHT22;48953;53.110;5.592;2022-07-12T11:14:12;42.20;99.90
62862;DHT22;48953;53.110;5.592;2022-07-12T11:16:46;41.40;99.90
62862;DHT22;48953;53.110;5.592;2022-07-12T11:19:13;41.40;99.90
62862;DHT22;48953;53.110;5.592;2022-07-12T11:21:39;40.50;99.90
62862;DHT22;48953;53.110;5.592;2022-07-12T11:24:18;40.10;99.90
62862;DHT22;48953;53.110;5.592;2022-07-12T11:26:45;38.00;99.90
62862;DHT22;48953;53.110;5.592;2022-07-12T11:29:11;37.50;99.90
62862;DHT22;48953;53.110;5.592;2022-07-12T11:31:37;37.10;99.90
62862;DHT22;48953;53.110;5.592;2022-07-12T11:34:03;37.10;99.90
62862;DHT22;48953;53.110;5.592;2022-07-12T11:36:29;35.60;99.90
62862;DHT22;48953;53.110;5.592;2022-07-12T11:38:55;35.70;99.90
62862;DHT22;48953;53.110;5.592;2022-07-12T11:41:21;35.50;99.90
62862;DHT22;48953;53.110;5.592;2022-07-12T11:43:49;35.10;99.90
62862;DHT22;48953;53.110;5.592;2022-07-12T11:46:14;34.10;99.90
62862;DHT22;48953;53.110;5.592;2022-07-12T11:48:42;34.30;99.90
62862;DHT22;48953;53.110;5.592;2022-07-12T11:51:09;34.50;99.90
62862;DHT22;48953;53.110;5.592;2022-07-12T11:53:36;34.80;99.90
62862;DHT22;48953;53.110;5.592;2022-07-12T11:56:04;34.60;99.90
62862;DHT22;48953;53.110;5.592;2022-07-12T11:58:37;35.20;99.90
62862;DHT22;48953;53.110;5.592;2022-07-12T12:01:10;34.50;99.90
62862;DHT22;48953;53.110;5.592;2022-07-12T12:03:48;34.70;99.90
62862;DHT22;48953;53.110;5.592;2022-07-12T12:06:15;34.80;99.90
62862;DHT22;48953;53.110;5.592;2022-07-12T12:08:45;35.30;99.90
62862;DHT22;48953;53.110;5.592;2022-07-12T12:11:11;34.50;99.90
62862;DHT22;48953;53.110;5.592;2022-07-12T12:13:36;34.60;99.90
62862;DHT22;48953;53.110;5.592;2022-07-12T12:16:05;34.30;99.90
62862;DHT22;48953;53.110;5.592;2022-07-12T12:18:35;33.50;99.90
62862;DHT22;48953;53.110;5.592;2022-07-12T12:21:04;33.20;99.90
62862;DHT22;48953;53.110;5.592;2022-07-12T12:23:30;33.80;99.90
62862;DHT22;48953;53.110;5.592;2022-07-12T12:26:12;33.50;99.90
62862;DHT22;48953;53.110;5.592;2022-07-12T12:28:45;33.30;99.90
62862;DHT22;48953;53.110;5.592;2022-07-12T12:31:12;33.30;99.90
62862;DHT22;48953;53.110;5.592;2022-07-12T12:33:43;33.30;99.90
62862;DHT22;48953;53.110;5.592;2022-07-12T12:38:59;33.80;99.90
62862;DHT22;48953;53.110;5.592;2022-07-12T12:41:30;33.80;99.90
62862;DHT22;48953;53.110;5.592;2022-07-12T12:44:04;33.60;99.90
62862;DHT22;48953;53.110;5.592;2022-07-12T12:52:11;33.00;99.90
62862;DHT22;48953;53.110;5.592;2022-07-12T12:54:37;33.10;99.90
62862;DHT22;48953;53.110;5.592;2022-07-12T12:57:04;33.30;99.90
62862;DHT22;48953;53.110;5.592;2022-07-12T12:59:30;33.90;99.90
62862;DHT22;48953;53.110;5.592;2022-07-12T13:01:56;33.60;99.90
62862;DHT22;48953;53.110;5.592;2022-07-12T13:04:33;33.60;99.90
62862;DHT22;48953;53.110;5.592;2022-07-12T13:06:59;33.50;99.90
62862;DHT22;48953;53.110;5.592;2022-07-12T13:09:28;33.10;99.90
62862;DHT22;48953;53.110;5.592;2022-07-12T13:11:55;33.70;99.90
62862;DHT22;48953;53.110;5.592;2022-07-12T13:14:21;33.20;99.90
62862;DHT22;48953;53.110;5.592;2022-07-12T13:16:47;33.00;99.90
62862;DHT22;48953;53.110;5.592;2022-07-12T13:19:12;33.30;99.90
62862;DHT22;48953;53.110;5.592;2022-07-12T13:21:38;32.60;99.90
62862;DHT22;48953;53.110;5.592;2022-07-12T13:24:04;32.70;99.90
62862;DHT22;48953;53.110;5.592;2022-07-12T13:26:30;33.00;99.90
62862;DHT22;48953;53.110;5.592;2022-07-12T13:28:56;32.70;99.90
62862;DHT22;48953;53.110;5.592;2022-07-12T13:31:22;33.00;99.90
62862;DHT22;48953;53.110;5.592;2022-07-12T13:33:48;32.70;99.90
62862;DHT22;48953;53.110;5.592;2022-07-12T13:36:14;32.40;99.90
62862;DHT22;48953;53.110;5.592;2022-07-12T13:38:40;32.90;99.90
62862;DHT22;48953;53.110;5.592;2022-07-12T13:41:06;32.70;99.90
62862;DHT22;48953;53.110;5.592;2022-07-12T13:43:32;32.80;99.90
62862;DHT22;48953;53.110;5.592;2022-07-12T13:45:58;32.60;99.90
62862;DHT22;48953;53.110;5.592;2022-07-12T13:48:23;32.60;99.90
62862;DHT22;48953;53.110;5.592;2022-07-12T13:50:49;32.70;99.90
62862;DHT22;48953;53.110;5.592;2022-07-12T13:53:15;32.80;99.90
62862;DHT22;48953;53.110;5.592;2022-07-12T13:55:42;32.70;99.90
62862;DHT22;48953;53.110;5.592;2022-07-12T13:58:09;33.00;99.90
62862;DHT22;48953;53.110;5.592;2022-07-12T14:00:34;32.90;99.90
62862;DHT22;48953;53.110;5.592;2022-07-12T14:03:00;32.70;99.90
62862;DHT22;48953;53.110;5.592;2022-07-12T14:05:26;32.40;99.90
62862;DHT22;48953;53.110;5.592;2022-07-12T14:07:52;32.40;99.90
62862;DHT22;48953;53.110;5.592;2022-07-12T14:10:19;32.70;99.90
62862;DHT22;48953;53.110;5.592;2022-07-12T14:12:45;32.80;99.90
62862;DHT22;48953;53.110;5.592;2022-07-12T14:15:34;32.60;99.90
62862;DHT22;48953;53.110;5.592;2022-07-12T14:18:04;32.20;99.90
62862;DHT22;48953;53.110;5.592;2022-07-12T14:20:31;32.20;99.90
62862;DHT22;48953;53.110;5.592;2022-07-12T14:23:04;32.10;99.90
62862;DHT22;48953;53.110;5.592;2022-07-12T14:25:31;31.90;99.90
62862;DHT22;48953;53.110;5.592;2022-07-12T14:27:57;31.60;99.90
62862;DHT22;48953;53.110;5.592;2022-07-12T14:30:23;31.40;99.90
62862;DHT22;48953;53.110;5.592;2022-07-12T14:32:49;31.40;99.90
62862;DHT22;48953;53.110;5.592;2022-07-12T14:35:14;31.10;99.90
62862;DHT22;48953;53.110;5.592;2022-07-12T14:37:40;30.70;99.90
62862;DHT22;48953;53.110;5.592;2022-07-12T14:40:07;30.30;99.90
62862;DHT22;48953;53.110;5.592;2022-07-12T14:42:33;30.20;99.90
62862;DHT22;48953;53.110;5.592;2022-07-12T14:44:59;30.10;99.90
62862;DHT22;48953;53.110;5.592;2022-07-12T14:47:25;30.10;99.90
62862;DHT22;48953;53.110;5.592;2022-07-12T14:49:50;29.90;99.90
62862;DHT22;48953;53.110;5.592;2022-07-12T14:52:18;29.70;99.90
62862;DHT22;48953;53.110;5.592;2022-07-12T14:54:44;29.70;99.90
62862;DHT22;48953;53.110;5.592;2022-07-12T14:57:10;30.00;99.90
62862;DHT22;48953;53.110;5.592;2022-07-12T14:59:36;29.90;99.90
62862;DHT22;48953;53.110;5.592;2022-07-12T15:02:02;29.90;99.90
62862;DHT22;48953;53.110;5.592;2022-07-12T15:04:27;29.90;99.90
62862;DHT22;48953;53.110;5.592;2022-07-12T15:06:54;30.00;99.90
62862;DHT22;48953;53.110;5.592;2022-07-12T15:09:20;29.60;99.90
62862;DHT22;48953;53.110;5.592;2022-07-12T15:11:45;29.70;99.90
62862;DHT22;48953;53.110;5.592;2022-07-12T15:14:11;29.70;99.90
62862;DHT22;48953;53.110;5.592;2022-07-12T15:16:37;29.70;99.90
62862;DHT22;48953;53.110;5.592;2022-07-12T15:19:02;29.60;99.90
62862;DHT22;48953;53.110;5.592;2022-07-12T15:21:28;29.60;99.90
62862;DHT22;48953;53.110;5.592;2022-07-12T15:23:55;29.60;99.90
62862;DHT22;48953;53.110;5.592;2022-07-12T15:26:21;29.80;99.90
62862;DHT22;48953;53.110;5.592;2022-07-12T15:28:56;29.80;99.90
62862;DHT22;48953;53.110;5.592;2022-07-12T15:31:22;29.80;99.90
62862;DHT22;48953;53.110;5.592;2022-07-12T15:33:49;30.00;99.90
62862;DHT22;48953;53.110;5.592;2022-07-12T15:36:16;29.80;99.90
62862;DHT22;48953;53.110;5.592;2022-07-12T15:38:42;29.70;99.90
62862;DHT22;48953;53.110;5.592;2022-07-12T15:41:12;29.90;99.90
62862;DHT22;48953;53.110;5.592;2022-07-12T15:46:11;29.70;99.90
62862;DHT22;48953;53.110;5.592;2022-07-12T15:48:38;29.50;99.90
62862;DHT22;48953;53.110;5.592;2022-07-12T15:51:05;29.50;99.90
62862;DHT22;48953;53.110;5.592;2022-07-12T15:53:31;29.20;99.90
62862;DHT22;48953;53.110;5.592;2022-07-12T15:56:07;29.20;99.90
62862;DHT22;48953;53.110;5.592;2022-07-12T15:58:38;28.90;99.90
62862;DHT22;48953;53.110;5.592;2022-07-12T16:01:05;28.90;99.90